Time;durP1;ratioP1;P1;durP2;ratioP2;P2;SDS_P1;SDS_P2;PMS_P1;PMS_P2;Temp;Humidity;BMP_temperature;BMP_pressure;BME280_temperature;BME280_humidity;BME280_pressure;Samples;Min_cycle;Max_cycle;Signal;HPM_P1;HPM_P2
2022/10/22 00:01:35;;;;;;;40.60;20.23;;;;;;;8.07;100.00;99639.94;4225519;28;21058;-71
2022/10/22 00:04:02;;;;;;;39.47;19.57;;;;;;;8.06;100.00;99643.59;4214906;28;20373;-71
2022/10/22 00:06:28;;;;;;;43.63;21.43;;;;;;;7.98;100.00;99645.16;4213128;28;20623;-72
2022/10/22 00:08:55;;;;;;;39.17;20.17;;;;;;;8.08;100.00;99639.81;4219748;28;20311;-70
2022/10/22 00:11:21;;;;;;;41.77;19.70;;;;;;;8.04;100.00;99635.78;4225365;28;20433;-71
2022/10/22 00:13:48;;;;;;;39.53;19.90;;;;;;;8.14;100.00;99633.88;4207051;28;20277;-71
2022/10/22 00:16:14;;;;;;;41.40;19.50;;;;;;;8.20;100.00;99627.19;4221290;28;20331;-72
2022/10/22 00:18:41;;;;;;;44.03;21.10;;;;;;;8.10;100.00;99626.38;4217979;28;25984;-70
2022/10/22 00:21:08;;;;;;;36.40;20.40;;;;;;;8.02;100.00;99620.00;4226651;28;20271;-69
2022/10/22 00:23:34;;;;;;;40.47;20.73;;;;;;;7.94;100.00;99625.25;4211271;28;20232;-70
2022/10/22 00:26:01;;;;;;;41.30;20.73;;;;;;;7.95;100.00;99628.72;4227436;28;20257;-73
2022/10/22 00:28:27;;;;;;;42.03;21.60;;;;;;;8.06;100.00;99625.03;4215672;28;20227;-71
2022/10/22 00:30:55;;;;;;;41.53;20.57;;;;;;;8.11;100.00;99620.13;4222762;28;20270;-68
2022/10/22 00:33:22;;;;;;;41.83;20.57;;;;;;;8.07;100.00;99626.69;4204829;28;20266;-67
2022/10/22 00:35:48;;;;;;;39.83;19.97;;;;;;;8.00;100.00;99615.84;4214138;28;21553;-67
2022/10/22 00:38:15;;;;;;;43.43;19.90;;;;;;;8.06;100.00;99607.31;4217078;28;20924;-70
2022/10/22 00:40:41;;;;;;;40.00;20.93;;;;;;;8.09;100.00;99603.53;4232394;28;20229;-70
2022/10/22 00:43:12;;;;;;;36.83;19.00;;;;;;;8.08;100.00;99602.72;4219277;28;21783;-70
2022/10/22 00:45:39;;;;;;;40.93;20.00;;;;;;;8.12;100.00;99597.94;4227066;28;20564;-70
2022/10/22 00:48:07;;;;;;;45.67;21.53;;;;;;;8.11;100.00;99606.88;4219498;28;23576;-70
2022/10/22 00:50:39;;;;;;;40.20;20.33;;;;;;;8.06;100.00;99599.38;4220378;28;21059;-69
2022/10/22 00:53:12;;;;;;;41.43;21.20;;;;;;;8.05;100.00;99597.69;4214314;28;20234;-69
2022/10/22 00:55:40;;;;;;;38.90;20.30;;;;;;;8.10;100.00;99598.09;4216283;28;20235;-70
2022/10/22 00:58:07;;;;;;;40.70;20.10;;;;;;;8.07;100.00;99594.91;4222351;28;22280;-71
2022/10/22 01:00:34;;;;;;;39.73;20.13;;;;;;;8.11;100.00;99602.41;4228278;28;21738;-70
2022/10/22 01:03:00;;;;;;;39.83;19.67;;;;;;;8.12;100.00;99597.94;4219913;28;20236;-69
2022/10/22 01:05:28;;;;;;;37.93;19.97;;;;;;;8.18;100.00;99581.44;4221002;28;20246;-70
2022/10/22 01:07:55;;;;;;;37.53;19.83;;;;;;;8.13;100.00;99575.75;4203168;28;20448;-68
2022/10/22 01:10:54;;;;;;;41.37;20.67;;;;;;;8.17;100.00;99575.31;4209381;28;20293;-70
2022/10/22 01:13:47;;;;;;;39.53;19.93;;;;;;;8.23;100.00;99587.13;4210060;28;20242;-69
2022/10/22 01:16:21;;;;;;;37.83;21.03;;;;;;;8.17;100.00;99583.25;4214763;28;21140;-71
2022/10/22 01:19:04;;;;;;;36.83;19.57;;;;;;;8.23;100.00;99577.34;4211475;28;20434;-71
2022/10/22 01:21:40;;;;;;;38.70;19.73;;;;;;;8.21;100.00;99586.44;4219469;28;20239;-70
2022/10/22 01:24:19;;;;;;;39.13;20.23;;;;;;;8.27;100.00;99575.22;4226563;28;24210;-72
2022/10/22 01:26:58;;;;;;;40.93;19.83;;;;;;;8.18;100.00;99568.19;4213383;28;20877;-72
2022/10/22 01:29:47;;;;;;;39.30;20.17;;;;;;;8.15;100.00;99571.97;4228647;28;21601;-71
2022/10/22 01:32:21;;;;;;;35.03;19.63;;;;;;;8.25;100.00;99567.44;4225934;28;20475;-70
2022/10/22 01:34:51;;;;;;;36.77;18.93;;;;;;;8.25;100.00;99566.59;4232248;28;22291;-70
2022/10/22 01:37:20;;;;;;;35.87;19.63;;;;;;;8.28;100.00;99566.28;4227271;28;22282;-68
2022/10/22 01:39:47;;;;;;;37.60;19.50;;;;;;;8.35;100.00;99556.75;4213861;28;20240;-69
2022/10/22 01:42:14;;;;;;;37.23;19.43;;;;;;;8.25;100.00;99564.78;4218292;28;20558;-70
2022/10/22 01:44:40;;;;;;;43.30;20.13;;;;;;;8.29;100.00;99565.31;4224595;28;21233;-72
2022/10/22 01:47:39;;;;;;;39.53;20.97;;;;;;;8.28;100.00;99566.28;4202511;28;20232;-68
2022/10/22 01:50:23;;;;;;;39.90;20.47;;;;;;;8.24;100.00;99563.13;4243639;28;20239;-69
2022/10/22 01:52:59;;;;;;;39.60;21.73;;;;;;;8.25;100.00;99572.72;4225490;28;20338;-68
2022/10/22 01:55:30;;;;;;;44.67;21.10;;;;;;;8.13;100.00;99573.13;4238780;28;20343;-68
2022/10/22 01:58:32;;;;;;;38.63;20.87;;;;;;;8.27;100.00;99564.63;4228785;28;20243;-68
2022/10/22 02:01:07;;;;;;;39.13;20.77;;;;;;;8.24;100.00;99570.22;4229695;28;20625;-72
2022/10/22 02:03:45;;;;;;;40.43;21.37;;;;;;;8.18;100.00;99555.75;4219419;28;20481;-68
2022/10/22 02:06:17;;;;;;;43.63;21.20;;;;;;;8.16;100.00;99554.25;4214251;28;20406;-70
2022/10/22 02:08:45;;;;;;;44.63;21.43;;;;;;;8.32;100.00;99550.94;4217149;28;20384;-69
2022/10/22 02:11:12;;;;;;;36.83;20.97;;;;;;;8.39;100.00;99544.84;4206353;28;21745;-69
2022/10/22 02:13:43;;;;;;;40.07;22.23;;;;;;;8.32;100.00;99546.44;4198528;28;20248;-69
2022/10/22 02:16:12;;;;;;;40.83;22.27;;;;;;;8.25;100.00;99550.69;4214748;28;20606;-71
2022/10/22 02:18:41;;;;;;;43.30;21.83;;;;;;;8.28;100.00;99558.34;4207989;28;20232;-70
2022/10/22 02:21:08;;;;;;;40.67;22.53;;;;;;;8.13;100.00;99555.38;4221540;28;21905;-74
2022/10/22 02:23:35;;;;;;;45.43;22.60;;;;;;;8.21;100.00;99547.50;4224831;28;20245;-72
2022/10/22 02:26:19;;;;;;;41.03;22.70;;;;;;;8.27;100.00;99554.03;4228100;28;26333;-75
2022/10/22 02:28:58;;;;;;;38.10;20.73;;;;;;;8.26;100.00;99555.00;4222912;28;20587;-69
2022/10/22 02:31:28;;;;;;;39.10;21.53;;;;;;;8.19;100.00;99553.94;4218468;28;20410;-70
2022/10/22 02:33:56;;;;;;;39.10;21.63;;;;;;;8.24;100.00;99557.81;4224921;28;20243;-70
2022/10/22 02:36:23;;;;;;;38.47;21.47;;;;;;;8.21;100.00;99559.94;4231146;28;20248;-70
2022/10/22 02:38:50;;;;;;;42.00;22.97;;;;;;;8.17;100.00;99553.25;4238288;28;23867;-72
2022/10/22 02:41:17;;;;;;;39.37;22.77;;;;;;;8.18;100.00;99566.38;4218786;28;22347;-69
2022/10/22 02:43:48;;;;;;;45.13;22.83;;;;;;;8.23;100.00;99563.25;4231818;28;21837;-71
2022/10/22 02:46:15;;;;;;;43.87;23.53;;;;;;;8.22;100.00;99556.31;4214470;28;20250;-72
2022/10/22 02:48:41;;;;;;;41.73;22.60;;;;;;;8.19;100.00;99551.28;4226676;28;21899;-72
2022/10/22 02:51:08;;;;;;;41.47;22.63;;;;;;;8.27;100.00;99561.16;4225299;28;20232;-70
2022/10/22 02:53:35;;;;;;;40.77;22.27;;;;;;;8.13;100.00;99562.50;4221416;28;20430;-74
2022/10/22 02:56:01;;;;;;;41.90;22.90;;;;;;;8.26;100.00;99557.66;4224982;28;25811;-71
2022/10/22 02:58:28;;;;;;;46.30;24.17;;;;;;;8.20;100.00;99555.63;4213338;28;20418;-75
2022/10/22 03:00:54;;;;;;;46.07;23.60;;;;;;;8.09;100.00;99561.97;4221514;28;20561;-70
2022/10/22 03:03:21;;;;;;;41.47;22.37;;;;;;;8.18;100.00;99557.59;4203314;28;20235;-72
2022/10/22 03:05:49;;;;;;;43.43;25.17;;;;;;;8.12;100.00;99550.22;4225494;28;20228;-70
2022/10/22 03:08:16;;;;;;;43.07;23.40;;;;;;;8.14;100.00;99549.09;4225475;28;23747;-73
2022/10/22 03:10:43;;;;;;;50.33;24.07;;;;;;;8.14;100.00;99548.25;4229764;28;20239;-72
2022/10/22 03:13:09;;;;;;;47.83;23.83;;;;;;;8.19;100.00;99548.63;4220856;28;21352;-70
2022/10/22 03:15:36;;;;;;;45.43;23.67;;;;;;;8.13;100.00;99541.31;4228289;28;20300;-73
2022/10/22 03:18:03;;;;;;;45.30;23.60;;;;;;;8.28;100.00;99545.09;4221964;28;25825;-75
2022/10/22 03:20:29;;;;;;;40.73;22.10;;;;;;;8.30;100.00;99542.28;4225309;28;20398;-69
2022/10/22 03:22:56;;;;;;;45.40;24.40;;;;;;;8.22;100.00;99540.41;4218509;28;20287;-71
2022/10/22 03:25:24;;;;;;;45.67;24.10;;;;;;;8.18;100.00;99545.16;4223470;28;20366;-74
2022/10/22 03:27:52;;;;;;;40.00;22.63;;;;;;;8.29;100.00;99536.16;4220207;28;20228;-71
2022/10/22 03:30:19;;;;;;;46.67;24.57;;;;;;;8.27;100.00;99535.47;4219460;28;20266;-70
2022/10/22 03:32:46;;;;;;;41.53;22.97;;;;;;;8.30;100.00;99537.00;4221523;28;20887;-72
2022/10/22 03:35:13;;;;;;;44.80;23.20;;;;;;;8.33;100.00;99542.81;4225105;28;21735;-69
2022/10/22 03:37:39;;;;;;;46.57;22.57;;;;;;;8.27;100.00;99537.31;4227009;28;25197;-70
2022/10/22 03:40:08;;;;;;;46.07;23.80;;;;;;;8.30;100.00;99553.72;4230081;28;20249;-72
2022/10/22 03:42:34;;;;;;;41.90;23.13;;;;;;;8.24;100.00;99560.47;4231301;28;26152;-75
2022/10/22 03:45:01;;;;;;;46.63;23.77;;;;;;;8.39;100.00;99560.75;4227754;28;20240;-70
2022/10/22 03:47:28;;;;;;;45.27;24.73;;;;;;;8.38;100.00;99569.72;4220333;28;20347;-70
2022/10/22 03:49:54;;;;;;;44.40;23.17;;;;;;;8.33;100.00;99568.47;4220101;28;20310;-76
2022/10/22 03:52:21;;;;;;;44.07;23.93;;;;;;;8.37;100.00;99565.38;4225548;28;20278;-70
2022/10/22 03:54:47;;;;;;;44.60;22.77;;;;;;;8.32;100.00;99546.44;4214351;28;20405;-72
2022/10/22 03:57:14;;;;;;;43.47;23.33;;;;;;;8.42;100.00;99546.38;4218259;28;23572;-72
2022/10/22 03:59:43;;;;;;;42.83;23.13;;;;;;;8.34;100.00;99539.19;4223797;28;20234;-71
2022/10/22 04:02:10;;;;;;;40.37;22.90;;;;;;;8.43;100.00;99550.72;4222539;28;20241;-69
2022/10/22 04:04:36;;;;;;;45.63;23.43;;;;;;;8.40;100.00;99551.84;4225038;28;20240;-71
2022/10/22 04:07:05;;;;;;;46.63;24.00;;;;;;;8.41;100.00;99555.34;4223598;28;20232;-69
2022/10/22 04:09:32;;;;;;;44.07;23.70;;;;;;;8.46;100.00;99555.72;4228280;28;20238;-71
2022/10/22 04:11:59;;;;;;;47.90;23.87;;;;;;;8.39;100.00;99558.09;4231566;28;20234;-73
2022/10/22 04:14:26;;;;;;;45.10;23.83;;;;;;;8.48;100.00;99544.97;4223080;28;20233;-71
2022/10/22 04:16:53;;;;;;;45.73;24.03;;;;;;;8.44;100.00;99544.44;4220696;28;25115;-72
2022/10/22 04:19:20;;;;;;;46.93;23.20;;;;;;;8.53;100.00;99542.69;4225555;28;20243;-70
2022/10/22 04:21:46;;;;;;;46.23;23.80;;;;;;;8.49;100.00;99538.66;4230669;28;23342;-73
2022/10/22 04:24:13;;;;;;;46.83;22.97;;;;;;;8.44;100.00;99534.66;4227669;28;20250;-71
2022/10/22 04:26:39;;;;;;;42.10;24.10;;;;;;;8.40;100.00;99520.03;4240465;28;20238;-72
2022/10/22 04:29:06;;;;;;;46.43;22.80;;;;;;;8.45;100.00;99514.25;4213034;28;20581;-76
2022/10/22 04:31:40;;;;;;;46.13;24.13;;;;;;;8.42;100.00;99515.41;4246104;28;20289;-72
2022/10/22 04:34:07;;;;;;;44.57;23.50;;;;;;;8.45;100.00;99520.41;4233994;28;20232;-72
2022/10/22 04:36:33;;;;;;;45.63;24.20;;;;;;;8.52;100.00;99511.84;4225649;28;20273;-69
2022/10/22 04:39:00;;;;;;;45.00;23.53;;;;;;;8.42;100.00;99510.09;4224102;28;20242;-72
2022/10/22 04:41:29;;;;;;;48.33;24.53;;;;;;;8.46;100.00;99494.72;4219287;28;20236;-71
2022/10/22 04:43:57;;;;;;;48.90;25.10;;;;;;;8.38;100.00;99486.66;4221288;28;20251;-68
2022/10/22 04:46:27;;;;;;;45.30;24.67;;;;;;;8.58;100.00;99497.97;4226320;28;20254;-69
2022/10/22 04:48:53;;;;;;;47.50;24.70;;;;;;;8.64;100.00;99500.84;4232950;28;22325;-70
2022/10/22 04:51:21;;;;;;;41.77;24.00;;;;;;;8.58;100.00;99503.28;4229110;28;20307;-70
2022/10/22 04:53:48;;;;;;;52.63;25.50;;;;;;;8.53;100.00;99508.22;4223377;28;20242;-68
2022/10/22 04:56:20;;;;;;;49.27;23.83;;;;;;;8.58;100.00;99508.56;4224904;28;22168;-70
2022/10/22 04:58:54;;;;;;;51.47;24.77;;;;;;;8.59;100.00;99510.22;4226736;28;21145;-71
2022/10/22 05:01:23;;;;;;;48.40;24.27;;;;;;;8.56;100.00;99513.19;4230800;28;20226;-73
2022/10/22 05:03:51;;;;;;;53.47;25.47;;;;;;;8.56;100.00;99510.53;4211282;28;20686;-70
2022/10/22 05:06:19;;;;;;;49.93;24.80;;;;;;;8.69;100.00;99510.16;4217531;28;21024;-72
2022/10/22 05:08:47;;;;;;;44.70;24.63;;;;;;;8.63;100.00;99522.19;4209361;28;20695;-68
2022/10/22 05:11:18;;;;;;;48.53;24.43;;;;;;;8.60;100.00;99509.25;4195731;28;20245;-68
2022/10/22 05:13:45;;;;;;;53.10;25.57;;;;;;;8.48;100.00;99515.81;4210503;28;20232;-66
2022/10/22 05:16:12;;;;;;;49.73;24.57;;;;;;;8.49;100.00;99514.81;4221436;28;20465;-68
2022/10/22 05:18:40;;;;;;;56.63;26.03;;;;;;;8.48;100.00;99523.75;4217181;28;20232;-66
2022/10/22 05:21:09;;;;;;;52.27;24.73;;;;;;;8.47;100.00;99516.78;4212314;28;20239;-69
2022/10/22 05:23:36;;;;;;;51.40;25.47;;;;;;;8.66;100.00;99521.88;4208347;28;20263;-64
2022/10/22 05:26:04;;;;;;;52.80;25.37;;;;;;;8.56;100.00;99526.44;4218867;28;20247;-66
2022/10/22 05:28:31;;;;;;;53.17;25.70;;;;;;;8.60;100.00;99522.50;4227167;28;20267;-73
2022/10/22 05:30:58;;;;;;;51.07;25.77;;;;;;;8.65;100.00;99526.34;4196631;28;21119;-65
2022/10/22 05:33:26;;;;;;;57.00;26.97;;;;;;;8.54;100.00;99533.72;4231523;28;20236;-69
2022/10/22 05:35:53;;;;;;;53.97;24.90;;;;;;;8.51;100.00;99523.44;4226960;28;20255;-71
2022/10/22 05:38:20;;;;;;;50.07;25.50;;;;;;;8.48;100.00;99526.41;4229194;28;20845;-67
2022/10/22 05:40:47;;;;;;;51.00;24.33;;;;;;;8.53;100.00;99524.13;4225349;28;20388;-67
2022/10/22 05:43:13;;;;;;;53.23;25.27;;;;;;;8.56;100.00;99519.31;4241058;28;20359;-70
2022/10/22 05:45:41;;;;;;;49.80;24.17;;;;;;;8.61;100.00;99524.16;4219035;28;20254;-72
2022/10/22 05:48:08;;;;;;;50.83;24.90;;;;;;;8.61;100.00;99517.03;4222794;28;20237;-68
2022/10/22 05:50:36;;;;;;;48.60;24.57;;;;;;;8.62;100.00;99521.38;4229050;28;20239;-69
2022/10/22 05:53:06;;;;;;;54.17;25.03;;;;;;;8.74;100.00;99521.13;4229884;28;20275;-67
2022/10/22 05:55:36;;;;;;;53.60;25.80;;;;;;;8.73;100.00;99514.97;4256103;28;20232;-69
2022/10/22 05:58:03;;;;;;;48.83;23.87;;;;;;;8.86;100.00;99507.44;4292416;28;21928;-67
2022/10/22 06:00:29;;;;;;;48.30;23.80;;;;;;;8.99;100.00;99511.47;4311723;28;20235;-67
2022/10/22 06:02:57;;;;;;;48.23;23.83;;;;;;;9.00;100.00;99513.97;4276647;28;20235;-66
2022/10/22 06:05:24;;;;;;;51.17;25.23;;;;;;;8.91;100.00;99524.69;4275880;28;20815;-66
2022/10/22 06:07:50;;;;;;;54.47;26.40;;;;;;;8.94;100.00;99524.38;4238359;28;20653;-65
2022/10/22 06:10:18;;;;;;;48.73;23.70;;;;;;;8.99;100.00;99524.72;4240147;28;20239;-68
2022/10/22 06:12:46;;;;;;;50.13;23.57;;;;;;;9.01;100.00;99531.56;4228584;28;21196;-69
2022/10/22 06:15:14;;;;;;;55.23;25.83;;;;;;;9.04;100.00;99535.75;4221699;28;21096;-66
2022/10/22 06:17:43;;;;;;;46.43;23.17;;;;;;;9.19;100.00;99530.66;4224231;28;22148;-67
2022/10/22 06:20:11;;;;;;;42.13;23.13;;;;;;;9.18;100.00;99532.50;4247290;28;23445;-73
2022/10/22 06:22:37;;;;;;;46.40;23.17;;;;;;;9.29;100.00;99541.97;4216102;28;21565;-67
2022/10/22 06:25:07;;;;;;;44.37;23.03;;;;;;;9.26;100.00;99535.16;4218942;28;23181;-65
2022/10/22 06:27:33;;;;;;;39.50;21.63;;;;;;;9.35;100.00;99545.84;4225883;28;21114;-67
2022/10/22 06:30:00;;;;;;;47.43;23.40;;;;;;;9.28;100.00;99543.81;4200069;28;20242;-70
2022/10/22 06:32:26;;;;;;;47.93;22.50;;;;;;;9.19;100.00;99543.94;4214865;28;20246;-64
2022/10/22 06:34:53;;;;;;;40.73;20.80;;;;;;;9.28;100.00;99543.81;4211741;28;20232;-70
2022/10/22 06:37:19;;;;;;;42.23;21.23;;;;;;;9.30;100.00;99557.75;4218955;28;21788;-67
2022/10/22 06:39:46;;;;;;;42.00;20.90;;;;;;;9.21;100.00;99553.41;4220746;28;20619;-66
2022/10/22 06:42:12;;;;;;;45.73;22.30;;;;;;;9.20;100.00;99545.59;4212851;28;23663;-66
2022/10/22 06:44:39;;;;;;;41.97;22.03;;;;;;;9.12;100.00;99543.72;4222289;28;20244;-68
2022/10/22 06:47:05;;;;;;;47.60;21.53;;;;;;;9.16;100.00;99545.09;4223308;28;20307;-67
2022/10/22 06:49:32;;;;;;;39.87;20.83;;;;;;;9.27;100.00;99552.78;4219578;28;20232;-76
2022/10/22 06:51:58;;;;;;;46.57;21.23;;;;;;;9.36;100.00;99555.47;4204400;28;20360;-68
2022/10/22 06:54:25;;;;;;;43.63;20.27;;;;;;;9.43;100.00;99559.97;4215446;28;20227;-74
2022/10/22 06:56:52;;;;;;;40.70;20.30;;;;;;;9.48;100.00;99559.50;4212953;28;22790;-65
2022/10/22 06:59:18;;;;;;;40.47;20.57;;;;;;;9.48;100.00;99556.84;4204347;28;20248;-67
2022/10/22 07:01:45;;;;;;;38.00;19.83;;;;;;;9.42;100.00;99546.88;4214907;28;20241;-65
2022/10/22 07:04:12;;;;;;;37.67;19.60;;;;;;;9.49;100.00;99563.81;4217483;28;20418;-67
2022/10/22 07:06:38;;;;;;;39.23;19.80;;;;;;;9.33;100.00;99577.84;4213164;28;20313;-66
2022/10/22 07:09:05;;;;;;;38.60;19.67;;;;;;;9.23;100.00;99593.91;4225018;28;20280;-64
2022/10/22 07:11:39;;;;;;;40.37;20.83;;;;;;;9.13;100.00;99590.53;4216696;28;20317;-66
2022/10/22 07:14:06;;;;;;;36.03;20.87;;;;;;;9.20;100.00;99578.28;4197265;28;20358;-63
2022/10/22 07:16:33;;;;;;;39.27;21.20;;;;;;;9.25;100.00;99591.09;4225803;28;20523;-63
2022/10/22 07:19:00;;;;;;;45.07;21.33;;;;;;;9.18;100.00;99590.88;4217444;28;26182;-63
2022/10/22 07:21:27;;;;;;;46.30;22.83;;;;;;;9.15;100.00;99591.19;4215586;28;20580;-65
2022/10/22 07:23:54;;;;;;;42.07;22.73;;;;;;;9.15;100.00;99591.19;4216270;28;20236;-64
2022/10/22 07:26:20;;;;;;;52.57;24.47;;;;;;;9.20;100.00;99602.19;4221049;28;20238;-67
2022/10/22 07:28:47;;;;;;;61.63;26.77;;;;;;;9.21;100.00;99595.88;4224526;28;20230;-66
2022/10/22 07:31:14;;;;;;;59.70;28.13;;;;;;;9.18;100.00;99590.88;4195286;28;20520;-69
2022/10/22 07:33:41;;;;;;;52.30;24.97;;;;;;;9.27;100.00;99591.75;4218268;28;20402;-66
2022/10/22 07:36:10;;;;;;;53.63;25.50;;;;;;;9.23;100.00;99583.28;4214946;28;20836;-67
2022/10/22 07:38:36;;;;;;;50.20;23.33;;;;;;;9.26;100.00;99566.19;4221177;28;20298;-64
2022/10/22 07:41:03;;;;;;;50.43;24.37;;;;;;;9.22;100.00;99565.66;4205249;28;20232;-66
2022/10/22 07:43:30;;;;;;;45.93;23.83;;;;;;;9.30;100.00;99560.41;4214467;28;22020;-69
2022/10/22 07:45:58;;;;;;;46.63;24.27;;;;;;;9.26;100.00;99576.81;4213819;28;20514;-67
2022/10/22 07:48:24;;;;;;;50.37;24.37;;;;;;;9.32;100.00;99580.66;4211964;28;20388;-66
2022/10/22 07:50:51;;;;;;;49.27;22.93;;;;;;;9.37;100.00;99578.38;4219370;28;20306;-69
2022/10/22 07:53:18;;;;;;;44.80;24.10;;;;;;;9.39;100.00;99576.38;4219342;28;20546;-67
2022/10/22 07:55:47;;;;;;;52.43;24.73;;;;;;;9.43;100.00;99586.53;4222996;28;21121;-70
2022/10/22 07:58:15;;;;;;;47.13;23.33;;;;;;;9.56;100.00;99586.09;4202924;28;24201;-68
2022/10/22 08:00:41;;;;;;;55.13;23.67;;;;;;;9.60;100.00;99589.25;4210757;28;20235;-68
2022/10/22 08:03:11;;;;;;;46.77;23.37;;;;;;;9.55;100.00;99592.38;4210251;28;20410;-66
2022/10/22 08:05:38;;;;;;;43.97;22.87;;;;;;;9.61;100.00;99583.78;4211918;28;20241;-67
2022/10/22 08:08:05;;;;;;;43.67;21.93;;;;;;;9.67;100.00;99579.69;4209308;28;20263;-70
2022/10/22 08:10:32;;;;;;;50.90;23.60;;;;;;;9.75;100.00;99594.81;4222188;28;20301;-72
2022/10/22 08:12:59;;;;;;;53.93;24.13;;;;;;;9.73;100.00;99585.16;4251129;28;21576;-70
2022/10/22 08:15:26;;;;;;;42.43;22.50;;;;;;;9.82;100.00;99591.34;4233329;28;23017;-68
2022/10/22 08:17:52;;;;;;;43.23;21.87;;;;;;;9.89;100.00;99599.50;4217263;28;20324;-69
2022/10/22 08:20:19;;;;;;;41.13;22.47;;;;;;;9.83;100.00;99600.13;4220153;28;20527;-71
2022/10/22 08:22:46;;;;;;;39.60;21.87;;;;;;;9.81;100.00;99602.13;4212131;28;20313;-72
2022/10/22 08:25:14;;;;;;;41.93;21.80;;;;;;;9.70;100.00;99596.13;4224247;28;20602;-74
2022/10/22 08:27:40;;;;;;;49.20;21.97;;;;;;;9.78;100.00;99595.31;4217254;28;23190;-69
2022/10/22 08:30:08;;;;;;;45.70;22.57;;;;;;;9.77;100.00;99603.47;4195361;28;20235;-71
2022/10/22 08:32:35;;;;;;;44.63;23.07;;;;;;;9.74;100.00;99599.28;4202456;28;20235;-70
2022/10/22 08:35:01;;;;;;;41.77;21.13;;;;;;;9.68;100.00;99590.13;4223005;28;20238;-69
2022/10/22 08:37:27;;;;;;;40.43;21.40;;;;;;;9.73;100.00;99597.63;4214382;28;20227;-68
2022/10/22 08:39:54;;;;;;;40.17;21.47;;;;;;;9.73;100.00;99595.78;4215490;28;21738;-67
2022/10/22 08:42:49;;;;;;;41.57;21.73;;;;;;;9.77;100.00;99588.34;4193419;28;20274;-69
2022/10/22 08:45:25;;;;;;;38.97;21.23;;;;;;;9.89;100.00;99596.84;4224673;28;20232;-69
2022/10/22 08:48:04;;;;;;;42.23;21.40;;;;;;;9.95;100.00;99590.91;4227136;28;20393;-70
2022/10/22 08:50:42;;;;;;;44.47;21.13;;;;;;;10.07;100.00;99600.22;4214583;28;22651;-68
2022/10/22 08:53:15;;;;;;;51.13;22.90;;;;;;;10.17;100.00;99597.44;4202760;28;20232;-68
2022/10/22 08:55:43;;;;;;;44.83;20.57;;;;;;;10.21;100.00;99595.25;4208691;28;20239;-70
2022/10/22 08:58:29;;;;;;;43.87;21.50;;;;;;;10.28;100.00;99604.28;4216819;28;20317;-71
2022/10/22 09:01:02;;;;;;;42.93;20.90;;;;;;;10.24;100.00;99605.59;4204590;28;21758;-71
2022/10/22 09:03:37;;;;;;;46.03;22.07;;;;;;;10.28;100.00;99609.59;4216846;28;21226;-70
2022/10/22 09:06:14;;;;;;;48.40;21.13;;;;;;;10.20;100.00;99612.22;4216024;28;20247;-70
2022/10/22 09:08:42;;;;;;;44.20;20.00;;;;;;;10.19;100.00;99621.19;4215508;28;20261;-71
2022/10/22 09:11:11;;;;;;;40.77;20.20;;;;;;;10.33;100.00;99628.56;4220187;28;21088;-70
2022/10/22 09:13:40;;;;;;;42.00;20.87;;;;;;;10.23;100.00;99634.00;4216954;28;20243;-70
2022/10/22 09:16:18;;;;;;;44.50;21.27;;;;;;;10.13;100.00;99638.63;4224753;28;20233;-71
2022/10/22 09:18:51;;;;;;;42.60;21.03;;;;;;;10.10;100.00;99631.78;4218291;28;20242;-71
2022/10/22 09:21:51;;;;;;;52.33;22.47;;;;;;;10.09;100.00;99627.50;4218692;28;20234;-71
2022/10/22 09:24:31;;;;;;;58.33;23.93;;;;;;;10.10;100.00;99629.13;4214204;28;20454;-71
2022/10/22 09:27:00;;;;;;;53.23;23.30;;;;;;;10.11;100.00;99622.84;4214878;28;20357;-69
2022/10/22 09:29:31;;;;;;;61.50;24.67;;;;;;;10.03;100.00;99621.97;4239178;28;23004;-70
2022/10/22 09:31:58;;;;;;;63.00;25.63;;;;;;;9.98;100.00;99614.50;4200774;28;20240;-72
2022/10/22 09:34:24;;;;;;;56.27;25.23;;;;;;;10.04;100.00;99618.31;4211010;28;20234;-69
2022/10/22 09:37:05;;;;;;;60.80;26.40;;;;;;;10.03;100.00;99612.16;4214442;28;20808;-70
2022/10/22 09:39:34;;;;;;;58.97;27.13;;;;;;;10.11;100.00;99609.56;4228675;28;20242;-70
2022/10/22 09:42:00;;;;;;;58.27;25.73;;;;;;;10.20;100.00;99606.91;4225797;28;20303;-65
2022/10/22 09:44:27;;;;;;;58.63;27.67;;;;;;;10.11;100.00;99603.38;4213844;28;21280;-68
2022/10/22 09:46:53;;;;;;;59.90;27.47;;;;;;;10.05;100.00;99601.38;4225175;28;20310;-71
2022/10/22 09:49:22;;;;;;;54.27;26.60;;;;;;;10.01;100.00;99600.88;4224964;28;20460;-69
2022/10/22 09:51:55;;;;;;;68.07;28.33;;;;;;;10.03;100.00;99598.88;4210639;28;20239;-76
2022/10/22 09:54:24;;;;;;;59.50;27.83;;;;;;;10.05;100.00;99599.56;4210829;28;20440;-71
2022/10/22 09:57:16;;;;;;;62.90;27.43;;;;;;;10.13;100.00;99599.56;4258692;28;20237;-70
2022/10/22 09:59:47;;;;;;;56.70;27.93;;;;;;;10.30;100.00;99605.78;4220380;28;20239;-68
2022/10/22 10:02:19;;;;;;;55.87;26.80;;;;;;;10.32;100.00;99610.94;4204043;28;20406;-67
2022/10/22 10:05:04;;;;;;;62.40;27.43;;;;;;;10.33;100.00;99612.63;4222931;28;20314;-68
2022/10/22 10:07:32;;;;;;;58.07;27.47;;;;;;;10.35;100.00;99622.09;4218215;28;20229;-74
2022/10/22 10:09:59;;;;;;;51.17;25.63;;;;;;;10.38;100.00;99615.59;4200975;28;20232;-70
2022/10/22 10:12:51;;;;;;;53.90;25.83;;;;;;;10.34;100.00;99614.25;4213415;28;21738;-71
2022/10/22 10:15:53;;;;;;;65.83;27.27;;;;;;;10.38;100.00;99604.97;4233401;28;21703;-69
2022/10/22 10:18:42;;;;;;;54.67;25.43;;;;;;;10.41;100.00;99612.59;4225234;28;20227;-71
2022/10/22 10:21:24;;;;;;;55.17;25.60;;;;;;;10.46;100.00;99612.94;4204373;28;20434;-71
2022/10/22 10:24:20;;;;;;;54.80;27.17;;;;;;;10.45;100.00;99615.78;4218942;28;21590;-72
2022/10/22 10:27:08;;;;;;;51.87;26.37;;;;;;;10.39;100.00;99629.72;4228513;28;20252;-72
2022/10/22 10:29:45;;;;;;;58.83;26.60;;;;;;;10.35;100.00;99634.56;4225219;28;20762;-73
2022/10/22 10:32:47;;;;;;;54.60;27.40;;;;;;;10.42;100.00;99630.25;4225977;28;21837;-72
2022/10/22 10:35:27;;;;;;;54.20;25.90;;;;;;;10.52;100.00;99628.25;4227579;28;21044;-73
2022/10/22 10:38:31;;;;;;;56.07;27.03;;;;;;;10.46;100.00;99618.25;4216449;28;20227;-72
2022/10/22 10:41:07;;;;;;;56.97;27.43;;;;;;;10.42;100.00;99622.28;4232777;28;20383;-72
2022/10/22 10:43:50;;;;;;;58.97;27.50;;;;;;;10.53;100.00;99632.56;4221049;28;20356;-71
2022/10/22 10:46:28;;;;;;;57.53;29.03;;;;;;;10.61;100.00;99636.25;4205666;28;22342;-70
2022/10/22 10:49:10;;;;;;;57.23;28.30;;;;;;;10.56;100.00;99628.78;4223416;28;23016;-72
2022/10/22 10:51:49;;;;;;;59.00;27.47;;;;;;;10.52;100.00;99641.56;4228266;28;21489;-71
2022/10/22 10:54:20;;;;;;;55.97;27.80;;;;;;;10.59;100.00;99646.22;4232298;28;20238;-71
2022/10/22 10:56:52;;;;;;;66.97;29.03;;;;;;;10.54;100.00;99647.56;4221393;28;20235;-70
2022/10/22 10:59:37;;;;;;;61.20;28.87;;;;;;;10.62;100.00;99645.91;4213446;28;21801;-68
2022/10/22 11:02:28;;;;;;;62.10;29.63;;;;;;;10.55;100.00;99638.56;4245627;28;20345;-68
2022/10/22 11:05:13;;;;;;;65.87;30.10;;;;;;;10.54;100.00;99630.75;4230798;28;20299;-69
2022/10/22 11:08:18;;;;;;;64.47;30.03;;;;;;;10.63;100.00;99626.25;4229723;28;20418;-67
2022/10/22 11:10:55;;;;;;;70.70;29.13;;;;;;;10.56;100.00;99618.13;4208116;28;21293;-70
2022/10/22 11:13:42;;;;;;;68.23;30.10;;;;;;;10.60;100.00;99615.97;4216044;28;20348;-69
2022/10/22 11:16:26;;;;;;;68.07;31.20;;;;;;;10.62;100.00;99608.66;4216714;28;21606;-68
2022/10/22 11:19:02;;;;;;;69.90;32.20;;;;;;;10.61;100.00;99605.16;4224327;28;21107;-73
2022/10/22 11:21:33;;;;;;;67.33;31.57;;;;;;;10.65;100.00;99605.66;4220013;28;20227;-68
2022/10/22 11:24:13;;;;;;;76.67;34.50;;;;;;;10.66;100.00;99607.31;4204413;28;22678;-69
2022/10/22 11:26:49;;;;;;;74.27;37.17;;;;;;;10.65;100.00;99613.63;4223353;28;20285;-71
2022/10/22 11:29:27;;;;;;;75.13;36.63;;;;;;;10.70;100.00;99609.50;4206442;28;20232;-67
2022/10/22 11:31:58;;;;;;;86.30;39.93;;;;;;;10.75;100.00;99609.81;4220570;28;20275;-67